sensor_id;sensor_type;location;lat;lon;timestamp;pressure;altitude;pressure_sealevel;temperature;humidity
71361;BME280;59166;48.908;1.870;2023-04-16T00:04:36;101151.41;;;5.67;100.00
71361;BME280;59166;48.908;1.870;2023-04-16T00:09:39;101150.59;;;5.60;100.00
71361;BME280;59166;48.908;1.870;2023-04-16T00:14:40;101148.94;;;5.52;100.00
71361;BME280;59166;48.908;1.870;2023-04-16T00:19:40;101157.81;;;5.46;100.00
71361;BME280;59166;48.908;1.870;2023-04-16T00:24:43;101156.56;;;5.36;100.00
71361;BME280;59166;48.908;1.870;2023-04-16T00:29:46;101148.13;;;5.26;100.00
71361;BME280;59166;48.908;1.870;2023-04-16T00:34:47;101149.97;;;5.25;100.00
71361;BME280;59166;48.908;1.870;2023-04-16T00:39:50;101152.66;;;5.18;100.00
71361;BME280;59166;48.908;1.870;2023-04-16T00:44:51;101150.97;;;5.11;100.00
71361;BME280;59166;48.908;1.870;2023-04-16T00:49:55;101141.91;;;5.05;100.00
71361;BME280;59166;48.908;1.870;2023-04-16T00:54:57;101141.50;;;4.95;100.00
71361;BME280;59166;48.908;1.870;2023-04-16T00:59:58;101138.81;;;4.89;100.00
71361;BME280;59166;48.908;1.870;2023-04-16T01:05:01;101144.75;;;4.84;100.00
71361;BME280;59166;48.908;1.870;2023-04-16T01:10:03;101153.59;;;4.78;100.00
71361;BME280;59166;48.908;1.870;2023-04-16T01:15:05;101153.75;;;4.70;100.00
71361;BME280;59166;48.908;1.870;2023-04-16T01:20:06;101159.53;;;4.67;100.00
71361;BME280;59166;48.908;1.870;2023-04-16T01:25:13;101170.63;;;4.64;100.00
71361;BME280;59166;48.908;1.870;2023-04-16T01:30:13;101184.41;;;4.61;100.00
71361;BME280;59166;48.908;1.870;2023-04-16T01:35:14;101178.81;;;4.56;100.00
71361;BME280;59166;48.908;1.870;2023-04-16T01:40:16;101183.75;;;4.52;100.00
71361;BME280;59166;48.908;1.870;2023-04-16T01:45:17;101175.09;;;4.50;100.00
71361;BME280;59166;48.908;1.870;2023-04-16T01:50:18;101178.78;;;4.49;100.00
71361;BME280;59166;48.908;1.870;2023-04-16T01:55:20;101173.03;;;4.52;100.00
71361;BME280;59166;48.908;1.870;2023-04-16T02:00:21;101176.75;;;4.51;100.00
71361;BME280;59166;48.908;1.870;2023-04-16T02:05:21;101172.59;;;4.42;100.00
71361;BME280;59166;48.908;1.870;2023-04-16T02:10:23;101174.03;;;4.38;100.00
71361;BME280;59166;48.908;1.870;2023-04-16T02:15:24;101171.34;;;4.38;100.00
71361;BME280;59166;48.908;1.870;2023-04-16T02:20:25;101176.28;;;4.35;100.00
71361;BME280;59166;48.908;1.870;2023-04-16T02:25:27;101173.34;;;4.30;100.00
71361;BME280;59166;48.908;1.870;2023-04-16T02:30:27;101180.34;;;4.31;100.00
71361;BME280;59166;48.908;1.870;2023-04-16T02:35:28;101184.06;;;4.30;100.00
71361;BME280;59166;48.908;1.870;2023-04-16T02:40:30;101184.88;;;4.30;100.00
71361;BME280;59166;48.908;1.870;2023-04-16T02:45:31;101177.69;;;4.31;100.00
71361;BME280;59166;48.908;1.870;2023-04-16T02:50:31;101177.03;;;4.29;100.00
71361;BME280;59166;48.908;1.870;2023-04-16T02:55:33;101187.91;;;4.20;100.00
71361;BME280;59166;48.908;1.870;2023-04-16T03:00:34;101186.22;;;4.13;100.00
71361;BME280;59166;48.908;1.870;2023-04-16T03:05:34;101195.47;;;4.10;100.00
71361;BME280;59166;48.908;1.870;2023-04-16T03:10:37;101186.56;;;4.03;100.00
71361;BME280;59166;48.908;1.870;2023-04-16T03:15:37;101192.94;;;4.02;100.00
71361;BME280;59166;48.908;1.870;2023-04-16T03:20:38;101191.06;;;3.96;100.00
71361;BME280;59166;48.908;1.870;2023-04-16T03:25:40;101185.44;;;3.91;100.00
71361;BME280;59166;48.908;1.870;2023-04-16T03:30:40;101186.28;;;3.92;100.00
71361;BME280;59166;48.908;1.870;2023-04-16T03:35:41;101190.38;;;3.88;100.00
71361;BME280;59166;48.908;1.870;2023-04-16T03:40:43;101192.81;;;3.83;100.00
71361;BME280;59166;48.908;1.870;2023-04-16T03:45:44;101184.56;;;3.78;100.00
71361;BME280;59166;48.908;1.870;2023-04-16T03:50:45;101175.47;;;3.72;100.00
71361;BME280;59166;48.908;1.870;2023-04-16T03:55:48;101178.56;;;3.76;100.00
71361;BME280;59166;48.908;1.870;2023-04-16T04:00:51;101170.75;;;3.74;100.00
71361;BME280;59166;48.908;1.870;2023-04-16T04:05:52;101166.44;;;3.73;100.00
71361;BME280;59166;48.908;1.870;2023-04-16T04:10:54;101177.25;;;3.65;100.00
71361;BME280;59166;48.908;1.870;2023-04-16T04:15:55;101182.38;;;3.60;100.00
71361;BME280;59166;48.908;1.870;2023-04-16T04:20:55;101180.47;;;3.54;100.00
71361;BME280;59166;48.908;1.870;2023-04-16T04:25:57;101169.53;;;3.49;100.00
71361;BME280;59166;48.908;1.870;2023-04-16T04:30:59;101177.94;;;3.46;100.00
71361;BME280;59166;48.908;1.870;2023-04-16T04:35:59;101175.44;;;3.44;100.00
71361;BME280;59166;48.908;1.870;2023-04-16T04:41:01;101179.53;;;3.40;100.00
71361;BME280;59166;48.908;1.870;2023-04-16T04:46:02;101182.94;;;3.34;100.00
71361;BME280;59166;48.908;1.870;2023-04-16T04:51:03;101190.28;;;3.26;100.00
71361;BME280;59166;48.908;1.870;2023-04-16T04:56:06;101191.66;;;3.22;100.00
71361;BME280;59166;48.908;1.870;2023-04-16T05:01:06;101196.56;;;3.18;100.00
71361;BME280;59166;48.908;1.870;2023-04-16T05:06:07;101206.22;;;3.19;100.00
71361;BME280;59166;48.908;1.870;2023-04-16T05:11:09;101209.06;;;3.17;100.00
71361;BME280;59166;48.908;1.870;2023-04-16T05:16:10;101209.84;;;3.11;100.00
71361;BME280;59166;48.908;1.870;2023-04-16T05:21:10;101216.06;;;3.18;100.00
71361;BME280;59166;48.908;1.870;2023-04-16T05:26:13;101230.72;;;3.23;100.00
71361;BME280;59166;48.908;1.870;2023-04-16T05:31:13;101232.44;;;3.30;100.00
71361;BME280;59166;48.908;1.870;2023-04-16T05:36:14;101229.75;;;3.30;100.00
71361;BME280;59166;48.908;1.870;2023-04-16T05:41:16;101229.44;;;3.40;100.00
71361;BME280;59166;48.908;1.870;2023-04-16T05:46:16;101238.59;;;3.52;100.00
71361;BME280;59166;48.908;1.870;2023-04-16T05:51:17;101230.25;;;3.61;100.00
71361;BME280;59166;48.908;1.870;2023-04-16T05:56:19;101244.94;;;3.72;100.00
71361;BME280;59166;48.908;1.870;2023-04-16T06:01:20;101248.69;;;3.78;100.00
71361;BME280;59166;48.908;1.870;2023-04-16T06:06:21;101252.44;;;3.83;100.00
71361;BME280;59166;48.908;1.870;2023-04-16T06:11:23;101256.44;;;3.94;100.00
71361;BME280;59166;48.908;1.870;2023-04-16T06:16:23;101256.78;;;4.18;100.00
71361;BME280;59166;48.908;1.870;2023-04-16T06:21:24;101264.25;;;4.23;100.00
71361;BME280;59166;48.908;1.870;2023-04-16T06:26:26;101266.72;;;4.25;100.00
71361;BME280;59166;48.908;1.870;2023-04-16T06:31:27;101271.34;;;4.37;100.00
71361;BME280;59166;48.908;1.870;2023-04-16T06:36:27;101274.47;;;4.47;100.00
71361;BME280;59166;48.908;1.870;2023-04-16T06:41:29;101263.25;;;4.58;100.00
71361;BME280;59166;48.908;1.870;2023-04-16T06:46:30;101277.72;;;4.77;100.00
71361;BME280;59166;48.908;1.870;2023-04-16T06:51:31;101274.31;;;4.96;100.00
71361;BME280;59166;48.908;1.870;2023-04-16T06:56:33;101278.72;;;5.17;100.00
71361;BME280;59166;48.908;1.870;2023-04-16T07:01:34;101276.31;;;5.42;100.00
71361;BME280;59166;48.908;1.870;2023-04-16T07:06:34;101281.28;;;5.64;100.00
71361;BME280;59166;48.908;1.870;2023-04-16T07:11:36;101276.16;;;5.89;100.00
71361;BME280;59166;48.908;1.870;2023-04-16T07:16:37;101281.34;;;6.17;100.00
71361;BME280;59166;48.908;1.870;2023-04-16T07:21:38;101280.06;;;6.52;100.00
71361;BME280;59166;48.908;1.870;2023-04-16T07:26:40;101273.97;;;6.83;100.00
71361;BME280;59166;48.908;1.870;2023-04-16T07:31:40;101276.53;;;7.16;100.00
71361;BME280;59166;48.908;1.870;2023-04-16T07:36:41;101272.25;;;7.40;100.00
71361;BME280;59166;48.908;1.870;2023-04-16T07:41:43;101277.44;;;7.72;98.26
71361;BME280;59166;48.908;1.870;2023-04-16T07:46:44;101286.25;;;7.86;96.71
71361;BME280;59166;48.908;1.870;2023-04-16T07:51:44;101288.28;;;8.15;94.84
71361;BME280;59166;48.908;1.870;2023-04-16T07:56:46;101286.47;;;8.52;91.51
71361;BME280;59166;48.908;1.870;2023-04-16T08:01:47;101288.88;;;8.78;88.29
71361;BME280;59166;48.908;1.870;2023-04-16T08:06:48;101306.81;;;8.91;85.90
71361;BME280;59166;48.908;1.870;2023-04-16T08:11:50;101299.66;;;9.33;84.71
71361;BME280;59166;48.908;1.870;2023-04-16T08:16:50;101298.78;;;9.51;82.79
71361;BME280;59166;48.908;1.870;2023-04-16T08:21:51;101302.50;;;9.68;80.32
71361;BME280;59166;48.908;1.870;2023-04-16T08:26:53;101298.09;;;9.97;80.27
71361;BME280;59166;48.908;1.870;2023-04-16T08:31:53;101305.53;;;10.48;74.18
71361;BME280;59166;48.908;1.870;2023-04-16T08:36:54;101301.75;;;10.95;72.74
71361;BME280;59166;48.908;1.870;2023-04-16T08:41:57;101307.78;;;11.25;70.25
71361;BME280;59166;48.908;1.870;2023-04-16T08:46:58;101309.28;;;11.45;71.64
71361;BME280;59166;48.908;1.870;2023-04-16T08:51:58;101319.88;;;11.91;67.40
71361;BME280;59166;48.908;1.870;2023-04-16T08:57:04;101328.09;;;11.68;65.44
71361;BME280;59166;48.908;1.870;2023-04-16T09:02:05;101325.97;;;11.70;64.43
71361;BME280;59166;48.908;1.870;2023-04-16T09:07:07;101321.19;;;12.22;67.89
71361;BME280;59166;48.908;1.870;2023-04-16T09:12:09;101319.53;;;12.71;62.77
71361;BME280;59166;48.908;1.870;2023-04-16T09:17:11;101328.59;;;12.98;64.86
71361;BME280;59166;48.908;1.870;2023-04-16T09:22:12;101329.81;;;13.29;64.47
71361;BME280;59166;48.908;1.870;2023-04-16T09:27:14;101336.53;;;13.70;59.26
71361;BME280;59166;48.908;1.870;2023-04-16T09:32:15;101336.28;;;13.50;61.87
71361;BME280;59166;48.908;1.870;2023-04-16T09:37:16;101333.94;;;13.58;56.84
71361;BME280;59166;48.908;1.870;2023-04-16T09:42:22;101338.19;;;13.71;59.35
71361;BME280;59166;48.908;1.870;2023-04-16T09:47:25;101341.34;;;13.89;55.35
71361;BME280;59166;48.908;1.870;2023-04-16T09:52:25;101342.47;;;14.20;55.64
71361;BME280;59166;48.908;1.870;2023-04-16T09:57:28;101335.00;;;14.42;54.70
71361;BME280;59166;48.908;1.870;2023-04-16T10:02:29;101338.34;;;14.50;56.33
71361;BME280;59166;48.908;1.870;2023-04-16T10:07:33;101333.94;;;14.43;56.66
71361;BME280;59166;48.908;1.870;2023-04-16T10:12:35;101341.09;;;14.55;55.99
71361;BME280;59166;48.908;1.870;2023-04-16T10:17:36;101347.91;;;14.57;54.73
71361;BME280;59166;48.908;1.870;2023-04-16T10:22:38;101339.84;;;14.35;58.81
71361;BME280;59166;48.908;1.870;2023-04-16T10:27:40;101340.53;;;14.53;54.83
71361;BME280;59166;48.908;1.870;2023-04-16T10:32:41;101337.25;;;14.51;55.77
71361;BME280;59166;48.908;1.870;2023-04-16T10:37:43;101341.47;;;14.68;53.10
71361;BME280;59166;48.908;1.870;2023-04-16T10:42:52;101337.31;;;14.98;54.14
71361;BME280;59166;48.908;1.870;2023-04-16T10:47:54;101333.38;;;15.25;56.10
71361;BME280;59166;48.908;1.870;2023-04-16T10:53:17;101337.66;;;15.11;53.93
71361;BME280;59166;48.908;1.870;2023-04-16T10:58:28;101342.41;;;15.41;55.14
71361;BME280;59166;48.908;1.870;2023-04-16T11:03:29;101334.28;;;15.46;55.00
71361;BME280;59166;48.908;1.870;2023-04-16T11:08:30;101333.31;;;15.15;52.36
71361;BME280;59166;48.908;1.870;2023-04-16T11:13:33;101331.22;;;15.37;53.95
71361;BME280;59166;48.908;1.870;2023-04-16T11:18:35;101335.69;;;15.69;52.63
71361;BME280;59166;48.908;1.870;2023-04-16T11:23:46;101328.84;;;15.56;50.37
71361;BME280;59166;48.908;1.870;2023-04-16T11:28:49;101339.19;;;15.49;50.41
71361;BME280;59166;48.908;1.870;2023-04-16T11:33:49;101326.38;;;15.55;48.93
71361;BME280;59166;48.908;1.870;2023-04-16T11:38:50;101326.94;;;15.62;53.80
71361;BME280;59166;48.908;1.870;2023-04-16T11:44:15;101328.44;;;16.10;53.56
71361;BME280;59166;48.908;1.870;2023-04-16T11:49:17;101315.88;;;16.39;54.29
71361;BME280;59166;48.908;1.870;2023-04-16T11:54:25;101312.28;;;16.59;50.83
71361;BME280;59166;48.908;1.870;2023-04-16T11:59:27;101309.31;;;16.60;47.85
71361;BME280;59166;48.908;1.870;2023-04-16T12:04:28;101306.06;;;16.08;53.49
71361;BME280;59166;48.908;1.870;2023-04-16T12:09:29;101306.56;;;15.84;52.76
71361;BME280;59166;48.908;1.870;2023-04-16T12:14:31;101314.66;;;15.54;50.00
71361;BME280;59166;48.908;1.870;2023-04-16T12:19:32;101299.94;;;15.40;49.08
71361;BME280;59166;48.908;1.870;2023-04-16T12:24:34;101303.31;;;15.77;48.88
71361;BME280;59166;48.908;1.870;2023-04-16T12:29:36;101307.41;;;15.90;48.71
71361;BME280;59166;48.908;1.870;2023-04-16T12:34:49;101304.16;;;16.08;46.32
71361;BME280;59166;48.908;1.870;2023-04-16T12:39:50;101301.38;;;15.83;47.89
71361;BME280;59166;48.908;1.870;2023-04-16T12:44:52;101303.75;;;15.44;49.07
71361;BME280;59166;48.908;1.870;2023-04-16T12:49:52;101304.66;;;15.95;48.89
71361;BME280;59166;48.908;1.870;2023-04-16T12:54:53;101291.09;;;16.10;49.14
71361;BME280;59166;48.908;1.870;2023-04-16T12:59:56;101291.06;;;16.51;51.26
71361;BME280;59166;48.908;1.870;2023-04-16T13:04:57;101288.84;;;16.53;45.44
71361;BME280;59166;48.908;1.870;2023-04-16T13:09:58;101293.47;;;16.67;46.73
71361;BME280;59166;48.908;1.870;2023-04-16T13:15:01;101282.59;;;16.42;47.17
71361;BME280;59166;48.908;1.870;2023-04-16T13:20:02;101278.22;;;16.61;47.65
71361;BME280;59166;48.908;1.870;2023-04-16T13:25:03;101282.03;;;16.65;48.18
71361;BME280;59166;48.908;1.870;2023-04-16T13:30:07;101281.84;;;17.11;47.13
71361;BME280;59166;48.908;1.870;2023-04-16T13:35:09;101271.75;;;17.16;47.88
71361;BME280;59166;48.908;1.870;2023-04-16T13:40:10;101272.41;;;16.88;45.22
71361;BME280;59166;48.908;1.870;2023-04-16T13:45:12;101265.28;;;16.92;49.96
71361;BME280;59166;48.908;1.870;2023-04-16T13:50:13;101259.66;;;16.58;43.08
71361;BME280;59166;48.908;1.870;2023-04-16T13:55:14;101257.28;;;17.11;46.08
71361;BME280;59166;48.908;1.870;2023-04-16T14:00:17;101263.50;;;17.31;44.13
71361;BME280;59166;48.908;1.870;2023-04-16T14:05:18;101255.16;;;16.98;44.75
71361;BME280;59166;48.908;1.870;2023-04-16T14:10:19;101255.56;;;17.30;44.63
71361;BME280;59166;48.908;1.870;2023-04-16T14:15:22;101253.44;;;17.22;45.81
71361;BME280;59166;48.908;1.870;2023-04-16T14:20:23;101252.44;;;16.98;46.99
71361;BME280;59166;48.908;1.870;2023-04-16T14:25:24;101249.72;;;16.92;46.92
71361;BME280;59166;48.908;1.870;2023-04-16T14:30:26;101248.00;;;17.07;48.75
71361;BME280;59166;48.908;1.870;2023-04-16T14:35:27;101248.56;;;17.04;46.81
71361;BME280;59166;48.908;1.870;2023-04-16T14:40:28;101250.03;;;17.40;48.34
71361;BME280;59166;48.908;1.870;2023-04-16T14:45:30;101250.66;;;17.71;45.58
71361;BME280;59166;48.908;1.870;2023-04-16T14:50:33;101244.38;;;18.04;45.68
71361;BME280;59166;48.908;1.870;2023-04-16T14:55:34;101245.19;;;18.05;47.11
71361;BME280;59166;48.908;1.870;2023-04-16T15:00:36;101234.31;;;18.00;44.74
71361;BME280;59166;48.908;1.870;2023-04-16T15:05:37;101237.78;;;18.10;45.88
71361;BME280;59166;48.908;1.870;2023-04-16T15:10:38;101230.31;;;18.21;47.26
71361;BME280;59166;48.908;1.870;2023-04-16T15:15:40;101223.81;;;17.83;45.83
71361;BME280;59166;48.908;1.870;2023-04-16T15:20:41;101224.78;;;17.63;44.99
71361;BME280;59166;48.908;1.870;2023-04-16T15:25:42;101233.06;;;16.99;47.54
71361;BME280;59166;48.908;1.870;2023-04-16T15:30:44;101232.06;;;16.70;47.94
71361;BME280;59166;48.908;1.870;2023-04-16T15:35:45;101222.94;;;16.20;50.30
71361;BME280;59166;48.908;1.870;2023-04-16T15:40:47;101228.50;;;16.69;48.39
71361;BME280;59166;48.908;1.870;2023-04-16T15:45:49;101222.72;;;16.91;47.23
71361;BME280;59166;48.908;1.870;2023-04-16T15:50:50;101229.91;;;16.57;49.23
71361;BME280;59166;48.908;1.870;2023-04-16T15:55:51;101215.59;;;16.95;46.77
71361;BME280;59166;48.908;1.870;2023-04-16T16:00:53;101218.97;;;16.72;49.72
71361;BME280;59166;48.908;1.870;2023-04-16T16:05:54;101215.50;;;16.46;49.07
71361;BME280;59166;48.908;1.870;2023-04-16T16:10:55;101212.31;;;16.14;47.76
71361;BME280;59166;48.908;1.870;2023-04-16T16:15:58;101210.91;;;15.81;52.36
71361;BME280;59166;48.908;1.870;2023-04-16T16:20:58;101209.84;;;15.97;50.70
71361;BME280;59166;48.908;1.870;2023-04-16T16:25:59;101212.28;;;15.68;52.31
71361;BME280;59166;48.908;1.870;2023-04-16T16:31:02;101210.91;;;15.56;54.02
71361;BME280;59166;48.908;1.870;2023-04-16T16:36:03;101212.00;;;15.65;53.90
71361;BME280;59166;48.908;1.870;2023-04-16T16:41:04;101220.72;;;15.57;52.39
71361;BME280;59166;48.908;1.870;2023-04-16T16:46:06;101212.00;;;15.85;53.26
71361;BME280;59166;48.908;1.870;2023-04-16T16:51:08;101213.09;;;15.99;52.90
71361;BME280;59166;48.908;1.870;2023-04-16T16:56:09;101207.66;;;15.79;52.65
71361;BME280;59166;48.908;1.870;2023-04-16T17:01:11;101213.09;;;15.59;54.73
71361;BME280;59166;48.908;1.870;2023-04-16T17:06:15;101213.59;;;15.30;53.28
71361;BME280;59166;48.908;1.870;2023-04-16T17:11:16;101210.78;;;15.00;55.22
71361;BME280;59166;48.908;1.870;2023-04-16T17:16:18;101217.34;;;14.99;57.22
71361;BME280;59166;48.908;1.870;2023-04-16T17:21:19;101217.81;;;14.91;55.83
71361;BME280;59166;48.908;1.870;2023-04-16T17:26:20;101210.97;;;14.83;57.80
71361;BME280;59166;48.908;1.870;2023-04-16T17:31:22;101212.34;;;14.81;56.32
71361;BME280;59166;48.908;1.870;2023-04-16T17:36:23;101210.66;;;14.70;56.63
71361;BME280;59166;48.908;1.870;2023-04-16T17:41:24;101219.56;;;14.55;56.05
71361;BME280;59166;48.908;1.870;2023-04-16T17:46:26;101217.56;;;14.40;55.29
71361;BME280;59166;48.908;1.870;2023-04-16T17:51:27;101214.03;;;14.35;57.72
71361;BME280;59166;48.908;1.870;2023-04-16T17:56:28;101225.66;;;14.30;56.91
71361;BME280;59166;48.908;1.870;2023-04-16T18:01:31;101216.00;;;14.08;58.74
71361;BME280;59166;48.908;1.870;2023-04-16T18:06:31;101215.63;;;13.94;60.45
71361;BME280;59166;48.908;1.870;2023-04-16T18:11:32;101215.47;;;13.74;60.60
71361;BME280;59166;48.908;1.870;2023-04-16T18:16:35;101220.22;;;13.62;61.38
71361;BME280;59166;48.908;1.870;2023-04-16T18:21:36;101226.25;;;13.37;62.32
71361;BME280;59166;48.908;1.870;2023-04-16T18:26:37;101228.34;;;13.08;63.74
71361;BME280;59166;48.908;1.870;2023-04-16T18:31:39;101225.41;;;12.88;66.33
71361;BME280;59166;48.908;1.870;2023-04-16T18:36:40;101233.28;;;12.68;67.08
71361;BME280;59166;48.908;1.870;2023-04-16T18:41:41;101234.06;;;12.47;67.25
71361;BME280;59166;48.908;1.870;2023-04-16T18:46:43;101241.50;;;12.34;68.71
71361;BME280;59166;48.908;1.870;2023-04-16T18:51:44;101242.31;;;12.18;70.28
71361;BME280;59166;48.908;1.870;2023-04-16T18:56:45;101244.78;;;12.03;70.42
71361;BME280;59166;48.908;1.870;2023-04-16T19:01:47;101249.69;;;11.89;71.86
71361;BME280;59166;48.908;1.870;2023-04-16T19:06:48;101243.06;;;11.80;73.25
71361;BME280;59166;48.908;1.870;2023-04-16T19:11:49;101247.31;;;11.76;74.19
71361;BME280;59166;48.908;1.870;2023-04-16T19:16:51;101253.38;;;11.67;75.31
71361;BME280;59166;48.908;1.870;2023-04-16T19:21:52;101247.63;;;11.63;75.16
71361;BME280;59166;48.908;1.870;2023-04-16T19:26:53;101249.28;;;11.64;76.15
71361;BME280;59166;48.908;1.870;2023-04-16T19:31:56;101254.25;;;11.56;76.15
71361;BME280;59166;48.908;1.870;2023-04-16T19:36:57;101252.78;;;11.48;75.96
71361;BME280;59166;48.908;1.870;2023-04-16T19:41:58;101253.53;;;11.32;76.69
71361;BME280;59166;48.908;1.870;2023-04-16T19:47:01;101264.19;;;11.22;77.22
71361;BME280;59166;48.908;1.870;2023-04-16T19:52:03;101264.13;;;11.05;77.99
71361;BME280;59166;48.908;1.870;2023-04-16T19:57:04;101262.38;;;10.99;77.57
71361;BME280;59166;48.908;1.870;2023-04-16T20:02:07;101259.13;;;10.85;77.93
71361;BME280;59166;48.908;1.870;2023-04-16T20:07:08;101269.09;;;10.85;78.47
71361;BME280;59166;48.908;1.870;2023-04-16T20:12:08;101265.81;;;10.71;78.32
71361;BME280;59166;48.908;1.870;2023-04-16T20:17:11;101268.41;;;10.55;79.43
71361;BME280;59166;48.908;1.870;2023-04-16T20:22:12;101261.00;;;10.50;78.42
71361;BME280;59166;48.908;1.870;2023-04-16T20:27:13;101269.38;;;10.49;78.10
71361;BME280;59166;48.908;1.870;2023-04-16T20:32:15;101275.84;;;10.36;78.60
71361;BME280;59166;48.908;1.870;2023-04-16T20:37:16;101279.22;;;10.31;78.92
71361;BME280;59166;48.908;1.870;2023-04-16T20:42:17;101279.69;;;10.17;79.21
71361;BME280;59166;48.908;1.870;2023-04-16T20:47:20;101274.50;;;10.04;80.16
71361;BME280;59166;48.908;1.870;2023-04-16T20:52:21;101278.84;;;9.93;80.67
71361;BME280;59166;48.908;1.870;2023-04-16T20:57:22;101281.28;;;9.83;81.60
71361;BME280;59166;48.908;1.870;2023-04-16T21:02:24;101273.66;;;9.80;81.94
71361;BME280;59166;48.908;1.870;2023-04-16T21:07:25;101264.84;;;9.73;82.21
71361;BME280;59166;48.908;1.870;2023-04-16T21:12:26;101270.69;;;9.70;82.66
71361;BME280;59166;48.908;1.870;2023-04-16T21:17:29;101262.59;;;9.58;83.66
71361;BME280;59166;48.908;1.870;2023-04-16T21:22:30;101264.31;;;9.53;83.57
71361;BME280;59166;48.908;1.870;2023-04-16T21:27:30;101252.22;;;9.44;84.65
71361;BME280;59166;48.908;1.870;2023-04-16T21:32:33;101259.47;;;9.43;85.94
71361;BME280;59166;48.908;1.870;2023-04-16T21:37:34;101257.03;;;9.42;86.54
71361;BME280;59166;48.908;1.870;2023-04-16T21:42:35;101255.84;;;9.38;86.98
71361;BME280;59166;48.908;1.870;2023-04-16T21:47:37;101258.63;;;9.31;88.26
71361;BME280;59166;48.908;1.870;2023-04-16T21:52:38;101260.59;;;9.24;88.73
71361;BME280;59166;48.908;1.870;2023-04-16T21:57:39;101259.94;;;9.10;90.68
71361;BME280;59166;48.908;1.870;2023-04-16T22:02:42;101267.34;;;8.97;92.10
71361;BME280;59166;48.908;1.870;2023-04-16T22:07:45;101265.78;;;8.89;93.01
71361;BME280;59166;48.908;1.870;2023-04-16T22:12:46;101257.38;;;8.79;93.56
71361;BME280;59166;48.908;1.870;2023-04-16T22:17:49;101259.13;;;8.73;94.05
71361;BME280;59166;48.908;1.870;2023-04-16T22:22:50;101254.84;;;8.66;95.04
71361;BME280;59166;48.908;1.870;2023-04-16T22:27:51;101257.03;;;8.57;96.11
71361;BME280;59166;48.908;1.870;2023-04-16T22:32:53;101249.69;;;8.46;96.65
71361;BME280;59166;48.908;1.870;2023-04-16T22:37:54;101255.81;;;8.53;97.17
71361;BME280;59166;48.908;1.870;2023-04-16T22:42:56;101252.28;;;8.53;95.24
71361;BME280;59166;48.908;1.870;2023-04-16T22:47:58;101248.50;;;8.60;94.89
71361;BME280;59166;48.908;1.870;2023-04-16T22:52:59;101243.38;;;8.52;93.13
71361;BME280;59166;48.908;1.870;2023-04-16T22:58:00;101247.75;;;8.53;92.56
71361;BME280;59166;48.908;1.870;2023-04-16T23:03:02;101249.88;;;8.45;94.59
71361;BME280;59166;48.908;1.870;2023-04-16T23:08:03;101247.78;;;8.28;95.86
71361;BME280;59166;48.908;1.870;2023-04-16T23:13:04;101238.41;;;8.13;96.64
71361;BME280;59166;48.908;1.870;2023-04-16T23:18:06;101236.16;;;8.10;94.39
71361;BME280;59166;48.908;1.870;2023-04-16T23:23:07;101247.31;;;8.13;93.85
71361;BME280;59166;48.908;1.870;2023-04-16T23:28:09;101246.81;;;8.23;91.67
71361;BME280;59166;48.908;1.870;2023-04-16T23:33:11;101251.38;;;8.22;90.65
71361;BME280;59166;48.908;1.870;2023-04-16T23:38:12;101248.69;;;8.22;91.10
71361;BME280;59166;48.908;1.870;2023-04-16T23:43:13;101246.31;;;8.08;91.68
71361;BME280;59166;48.908;1.870;2023-04-16T23:48:15;101242.16;;;7.87;92.50
71361;BME280;59166;48.908;1.870;2023-04-16T23:53:16;101247.03;;;7.72;92.87
71361;BME280;59166;48.908;1.870;2023-04-16T23:58:16;101245.88;;;7.61;91.23
